Terminal Aerodrome Forecast
Issued by NWS

Home | Current Version | Previous Version | Graphics & Text | Print | Product List | Glossary On
Versions: 1 2 3 4 5 6 7 8 9 10 11 12 13 14 15
163
FTUS43 KICT 261720
TAFRSL
TAF
KRSL 261720Z 2618/2718 34017KT P6SM SCT030
     FM262000 33016G24KT P6SM FEW035 SCT150
     FM270000 33010KT P6SM SKC
     FM270200 33006KT P6SM SKC
     FM271200 12010KT P6SM SCT120=

USA.gov is the U.S. government's official web portal to all federal, state and local government web resources and services.